Time;durP1;ratioP1;P1;durP2;ratioP2;P2;SDS_P1;SDS_P2;PMS_P1;PMS_P2;Temp;Humidity;BMP_temperature;BMP_pressure;BME280_temperature;BME280_humidity;BME280_pressure;Samples;Min_cycle;Max_cycle;Signal;HPM_P1;HPM_P2
2023/05/25 00:01:03;;;;;;;7.95;3.08;;;9.30;99.90;;;;;;4947658;28;20024;-89
2023/05/25 00:03:29;;;;;;;10.57;3.10;;;9.30;99.90;;;;;;4955894;28;20023;-89
2023/05/25 00:05:56;;;;;;;6.72;3.05;;;9.20;99.90;;;;;;4967039;28;20088;-90
2023/05/25 00:08:22;;;;;;;10.40;3.40;;;9.20;99.90;;;;;;4971816;28;20376;-90
2023/05/25 00:10:48;;;;;;;11.55;3.15;;;9.20;99.90;;;;;;4967635;28;20034;-89
2023/05/25 00:13:13;;;;;;;10.25;3.08;;;9.20;99.90;;;;;;4967008;28;20058;-89
2023/05/25 00:15:39;;;;;;;11.55;3.30;;;9.10;99.90;;;;;;4964133;28;20038;-90
2023/05/25 00:18:05;;;;;;;12.65;3.30;;;9.10;99.90;;;;;;4960155;28;20070;-89
2023/05/25 00:20:31;;;;;;;9.88;2.78;;;9.10;99.90;;;;;;4951254;29;20039;-90
2023/05/25 00:22:57;;;;;;;9.60;3.00;;;9.10;99.90;;;;;;4969235;28;20030;-90
2023/05/25 00:25:23;;;;;;;8.00;3.35;;;9.00;99.90;;;;;;4960368;28;20023;-89
2023/05/25 00:27:48;;;;;;;7.05;2.50;;;8.90;99.90;;;;;;4952220;28;20380;-89
2023/05/25 00:30:14;;;;;;;8.65;3.05;;;8.90;99.90;;;;;;4956409;28;20055;-89
2023/05/25 00:32:40;;;;;;;9.85;2.90;;;8.80;99.90;;;;;;4955319;28;20031;-89
2023/05/25 00:35:06;;;;;;;8.18;3.28;;;8.70;99.90;;;;;;4957113;28;20193;-90
2023/05/25 00:37:32;;;;;;;10.35;3.28;;;8.70;99.90;;;;;;4956133;28;20067;-90
2023/05/25 00:39:57;;;;;;;10.95;3.28;;;8.70;99.90;;;;;;4966362;28;20127;-89
2023/05/25 00:42:23;;;;;;;9.02;3.17;;;8.60;99.90;;;;;;4965373;28;20132;-89
2023/05/25 00:44:48;;;;;;;14.27;3.55;;;8.60;99.90;;;;;;4960344;28;20026;-89
2023/05/25 00:47:16;;;;;;;11.88;3.03;;;8.60;99.90;;;;;;4956273;28;20054;-89
2023/05/25 00:49:41;;;;;;;11.60;3.63;;;8.50;99.90;;;;;;4957642;28;20023;-89
2023/05/25 00:52:09;;;;;;;10.15;3.53;;;8.40;99.90;;;;;;4936239;28;20035;-89
2023/05/25 00:54:36;;;;;;;10.82;3.00;;;8.40;99.90;;;;;;4966971;28;20049;-89
2023/05/25 00:57:03;;;;;;;9.98;3.38;;;8.40;99.90;;;;;;4955516;28;20169;-90
2023/05/25 00:59:46;;;;;;;8.88;2.33;;;8.30;99.90;;;;;;4946287;28;20039;-89
2023/05/25 01:02:16;;;;;;;9.32;3.10;;;8.30;99.90;;;;;;4962356;28;20027;-89
2023/05/25 01:04:48;;;;;;;9.20;2.63;;;8.30;99.90;;;;;;4958553;28;20081;-89
2023/05/25 01:07:17;;;;;;;9.65;3.25;;;8.20;99.90;;;;;;4944375;28;20027;-89
2023/05/25 01:09:44;;;;;;;10.73;3.00;;;8.10;99.90;;;;;;4956075;28;20034;-89
2023/05/25 01:12:13;;;;;;;5.82;2.45;;;8.10;99.90;;;;;;4950020;28;20480;-89
2023/05/25 01:14:39;;;;;;;11.82;3.45;;;8.10;99.90;;;;;;4933982;29;20028;-90
2023/05/25 01:17:05;;;;;;;8.02;3.35;;;8.10;99.90;;;;;;4959328;28;20074;-88
2023/05/25 01:19:32;;;;;;;12.80;3.38;;;8.10;99.90;;;;;;4967253;28;20035;-89
2023/05/25 01:22:11;;;;;;;9.88;3.63;;;8.00;99.90;;;;;;4961205;28;20122;-89
2023/05/25 01:24:43;;;;;;;12.48;3.78;;;8.00;99.90;;;;;;4964121;28;20056;-89
2023/05/25 01:27:14;;;;;;;13.98;4.22;;;8.00;99.90;;;;;;4945760;28;20597;-88
2023/05/25 01:29:44;;;;;;;10.23;4.10;;;8.00;99.90;;;;;;4961553;28;20024;-89
2023/05/25 01:32:10;;;;;;;12.75;3.28;;;8.00;99.90;;;;;;4958230;28;20086;-89
2023/05/25 01:34:38;;;;;;;10.93;3.50;;;8.00;99.90;;;;;;4990073;28;20491;-89
2023/05/25 01:37:04;;;;;;;11.57;3.75;;;8.00;99.90;;;;;;5007453;28;20133;-88
2023/05/25 01:39:29;;;;;;;10.93;3.13;;;7.90;99.90;;;;;;4990618;28;20046;-88
2023/05/25 01:41:55;;;;;;;10.07;3.92;;;7.90;99.90;;;;;;4993452;28;20030;-89
2023/05/25 01:44:21;;;;;;;9.40;3.20;;;7.90;99.90;;;;;;4993285;28;20164;-89
2023/05/25 01:46:52;;;;;;;10.57;3.55;;;7.80;99.90;;;;;;4975071;28;20077;-88
2023/05/25 01:49:26;;;;;;;10.98;3.90;;;7.80;99.90;;;;;;4981927;28;20056;-89
2023/05/25 01:52:09;;;;;;;9.10;3.55;;;7.70;99.90;;;;;;4976041;28;20124;-89
2023/05/25 01:54:39;;;;;;;18.13;4.28;;;7.70;99.90;;;;;;4975996;28;20084;-89
2023/05/25 01:57:08;;;;;;;14.10;3.92;;;7.70;99.90;;;;;;4965035;28;20402;-89
2023/05/25 01:59:37;;;;;;;9.77;4.45;;;7.70;99.90;;;;;;4985972;28;20047;-88
2023/05/25 02:02:04;;;;;;;12.18;4.10;;;7.60;99.90;;;;;;4992333;28;20035;-89
2023/05/25 02:04:30;;;;;;;11.70;4.45;;;7.60;99.90;;;;;;4972038;28;20022;-89
2023/05/25 02:06:55;;;;;;;9.80;3.92;;;7.60;99.90;;;;;;4992878;28;20029;-88
2023/05/25 02:09:21;;;;;;;10.70;3.65;;;7.60;99.90;;;;;;4972011;28;20466;-90
2023/05/25 02:11:47;;;;;;;10.38;3.95;;;7.60;99.90;;;;;;4969458;28;20162;-89
2023/05/25 02:14:13;;;;;;;13.50;3.85;;;7.60;99.90;;;;;;4994768;28;20022;-89
2023/05/25 02:16:39;;;;;;;9.50;4.22;;;7.60;99.90;;;;;;4976068;28;20038;-88
2023/05/25 02:19:05;;;;;;;11.20;4.10;;;7.60;99.90;;;;;;4978093;28;20387;-89
2023/05/25 02:21:31;;;;;;;13.55;4.25;;;7.50;99.90;;;;;;4974741;28;20121;-89
2023/05/25 02:23:56;;;;;;;10.57;4.50;;;7.50;99.90;;;;;;4978004;28;20023;-89
2023/05/25 02:26:22;;;;;;;14.07;3.88;;;7.50;99.90;;;;;;4960784;28;20037;-89
2023/05/25 02:28:48;;;;;;;11.98;4.63;;;7.40;99.90;;;;;;4977004;28;20039;-89
2023/05/25 02:31:13;;;;;;;10.00;3.75;;;7.40;99.90;;;;;;4979751;28;20415;-89
2023/05/25 02:33:39;;;;;;;10.63;3.95;;;7.40;99.90;;;;;;4971751;28;20042;-89
2023/05/25 02:36:05;;;;;;;12.02;4.13;;;7.40;99.90;;;;;;5009815;28;20077;-89
2023/05/25 02:38:30;;;;;;;12.32;4.07;;;7.40;99.90;;;;;;4998357;28;20037;-89
2023/05/25 02:40:56;;;;;;;11.95;4.53;;;7.40;99.90;;;;;;4977760;28;20034;-90
2023/05/25 02:43:21;;;;;;;11.15;3.95;;;7.40;99.90;;;;;;4993355;28;20022;-89
2023/05/25 02:45:47;;;;;;;10.45;4.78;;;7.40;99.90;;;;;;4980974;28;20169;-89
2023/05/25 02:48:12;;;;;;;10.57;5.35;;;7.40;99.90;;;;;;5014761;28;20217;-90
2023/05/25 02:50:38;;;;;;;10.50;4.30;;;7.40;99.90;;;;;;4998282;28;20022;-89
2023/05/25 02:53:06;;;;;;;8.93;4.88;;;7.40;99.90;;;;;;4995262;28;20379;-90
2023/05/25 02:55:32;;;;;;;13.63;5.25;;;7.40;99.90;;;;;;4983909;28;20080;-90
2023/05/25 02:57:58;;;;;;;15.57;5.18;;;7.40;99.90;;;;;;4985441;28;20045;-90
2023/05/25 03:00:24;;;;;;;13.25;5.72;;;7.40;99.90;;;;;;4979766;28;20022;-90
2023/05/25 03:02:50;;;;;;;11.90;4.65;;;7.40;99.90;;;;;;4982150;28;20032;-89
2023/05/25 03:05:16;;;;;;;9.20;4.30;;;7.40;99.90;;;;;;4990637;28;20114;-90
2023/05/25 03:07:42;;;;;;;14.38;5.60;;;7.50;99.90;;;;;;4963726;28;20027;-90
2023/05/25 03:10:09;;;;;;;14.75;5.35;;;7.40;99.90;;;;;;4959018;28;20118;-90
2023/05/25 03:12:34;;;;;;;12.95;5.15;;;7.40;99.90;;;;;;4982865;28;20054;-90
2023/05/25 03:15:00;;;;;;;12.45;5.05;;;7.40;99.90;;;;;;4962607;28;20491;-90
2023/05/25 03:17:25;;;;;;;17.80;5.28;;;7.50;99.90;;;;;;4975618;28;20141;-90
2023/05/25 03:19:51;;;;;;;11.20;5.20;;;7.50;99.90;;;;;;4984159;28;20040;-90
2023/05/25 03:22:16;;;;;;;13.85;5.10;;;7.50;99.90;;;;;;4978581;28;20030;-90
2023/05/25 03:24:43;;;;;;;14.60;5.28;;;7.50;99.90;;;;;;4974197;28;20022;-90
2023/05/25 03:27:09;;;;;;;13.38;5.00;;;7.50;99.90;;;;;;4991750;28;20466;-90
2023/05/25 03:29:34;;;;;;;13.15;5.25;;;7.50;99.90;;;;;;4977492;28;20037;-90
2023/05/25 03:32:00;;;;;;;16.77;5.80;;;7.50;99.90;;;;;;4984372;28;20109;-90
2023/05/25 03:34:26;;;;;;;10.70;5.15;;;7.50;99.90;;;;;;4977016;28;20107;-90
2023/05/25 03:36:53;;;;;;;14.80;4.88;;;7.50;99.90;;;;;;4976496;28;20034;-90
2023/05/25 03:39:21;;;;;;;8.82;4.97;;;7.40;99.90;;;;;;4995433;28;20022;-90
2023/05/25 03:41:47;;;;;;;10.90;5.03;;;7.40;99.90;;;;;;4973199;28;20042;-90
2023/05/25 03:44:12;;;;;;;16.45;5.88;;;7.40;99.90;;;;;;5001261;28;20103;-90
2023/05/25 03:46:38;;;;;;;12.95;5.80;;;7.40;99.90;;;;;;4981794;28;20030;-90
2023/05/25 03:49:04;;;;;;;8.57;5.22;;;7.40;99.90;;;;;;4969035;28;20019;-90
2023/05/25 03:51:30;;;;;;;12.77;5.07;;;7.40;99.90;;;;;;5002048;28;20133;-90
2023/05/25 03:53:55;;;;;;;14.75;5.13;;;7.40;99.90;;;;;;4987497;28;20046;-89
2023/05/25 03:56:21;;;;;;;16.15;5.57;;;7.40;99.90;;;;;;4987624;28;20080;-90
2023/05/25 03:58:47;;;;;;;14.25;5.68;;;7.40;99.90;;;;;;4972043;28;20023;-90
2023/05/25 04:01:13;;;;;;;12.43;4.68;;;7.40;99.90;;;;;;4975242;28;20088;-90
2023/05/25 04:03:39;;;;;;;12.38;6.07;;;7.40;99.90;;;;;;4972997;28;20023;-90
2023/05/25 04:06:04;;;;;;;13.98;4.97;;;7.40;99.90;;;;;;4982411;28;20394;-89
2023/05/25 04:08:30;;;;;;;11.52;5.47;;;7.40;99.90;;;;;;4977525;28;20334;-89
2023/05/25 04:10:56;;;;;;;12.68;5.25;;;7.40;99.90;;;;;;4965025;28;20031;-90
2023/05/25 04:13:22;;;;;;;15.35;6.25;;;7.30;99.90;;;;;;4976626;28;20093;-90
2023/05/25 04:15:48;;;;;;;9.50;4.63;;;7.30;99.90;;;;;;4996982;28;20036;-90
2023/05/25 04:18:14;;;;;;;10.77;5.20;;;7.30;99.90;;;;;;4994776;28;20034;-90
2023/05/25 04:20:40;;;;;;;12.35;5.03;;;7.30;99.90;;;;;;4993720;28;20125;-90
2023/05/25 04:23:05;;;;;;;12.20;5.38;;;7.30;99.90;;;;;;4995602;28;20034;-90
2023/05/25 04:25:31;;;;;;;12.82;5.25;;;7.30;99.90;;;;;;4984421;28;20037;-89
2023/05/25 04:27:56;;;;;;;14.43;4.88;;;7.30;99.90;;;;;;4991716;28;20037;-90
2023/05/25 04:30:22;;;;;;;15.25;5.00;;;7.30;99.90;;;;;;4984857;28;20032;-90
2023/05/25 04:32:47;;;;;;;13.07;5.30;;;7.40;99.90;;;;;;4986145;28;20493;-90
2023/05/25 04:35:14;;;;;;;12.00;5.85;;;7.40;99.90;;;;;;4965865;28;20523;-90
2023/05/25 04:37:40;;;;;;;15.70;5.55;;;7.40;99.90;;;;;;4965316;28;20042;-90
2023/05/25 04:40:12;;;;;;;19.42;6.25;;;7.50;99.90;;;;;;4967236;28;20593;-89
2023/05/25 04:42:39;;;;;;;17.85;6.00;;;7.60;99.90;;;;;;4973558;28;20157;-90
2023/05/25 04:45:07;;;;;;;12.07;5.63;;;7.70;99.90;;;;;;4983874;28;20030;-89
2023/05/25 04:47:33;;;;;;;19.63;5.90;;;7.70;99.90;;;;;;4985989;28;20022;-90
2023/05/25 04:50:00;;;;;;;13.20;5.63;;;7.80;99.90;;;;;;4985493;28;20073;-90
2023/05/25 04:52:25;;;;;;;16.55;6.35;;;7.90;99.90;;;;;;4962418;28;20031;-89
2023/05/25 04:54:52;;;;;;;16.25;5.90;;;8.00;99.90;;;;;;4957979;28;20027;-90
2023/05/25 04:57:17;;;;;;;17.58;6.65;;;8.20;99.90;;;;;;4982448;28;20068;-90
2023/05/25 04:59:43;;;;;;;14.35;5.03;;;8.40;99.90;;;;;;4988807;28;20467;-90
2023/05/25 05:02:09;;;;;;;12.63;5.55;;;8.50;99.90;;;;;;4963540;28;20027;-90
2023/05/25 05:04:36;;;;;;;11.07;5.28;;;8.70;99.90;;;;;;4993401;28;20030;-89
2023/05/25 05:07:02;;;;;;;13.20;4.82;;;8.90;99.90;;;;;;4996909;28;20031;-89
2023/05/25 05:09:27;;;;;;;12.65;4.45;;;9.10;99.90;;;;;;4977621;28;20041;-89
2023/05/25 05:11:53;;;;;;;12.68;4.60;;;9.40;99.90;;;;;;4984541;28;20475;-90
2023/05/25 05:14:18;;;;;;;9.80;3.60;;;9.60;99.90;;;;;;4984287;28;20041;-90
2023/05/25 05:16:44;;;;;;;12.05;3.85;;;10.00;99.90;;;;;;4982119;28;20026;-90
2023/05/25 05:19:10;;;;;;;9.45;3.40;;;10.40;99.90;;;;;;4983814;28;20037;-90
2023/05/25 05:21:35;;;;;;;9.80;3.45;;;10.70;99.90;;;;;;4973247;28;20067;-90
2023/05/25 05:24:01;;;;;;;13.00;4.03;;;11.10;99.90;;;;;;4973417;28;20053;-90
2023/05/25 05:26:27;;;;;;;10.77;3.22;;;11.40;99.90;;;;;;4962863;28;20464;-89
2023/05/25 05:28:53;;;;;;;8.20;2.80;;;11.60;99.90;;;;;;4970056;28;20030;-90
2023/05/25 05:31:18;;;;;;;10.68;3.38;;;11.80;99.90;;;;;;4979095;28;20038;-90
2023/05/25 05:33:44;;;;;;;7.20;3.08;;;12.00;99.90;;;;;;4965537;28;20046;-91
2023/05/25 05:36:09;;;;;;;9.68;3.45;;;12.20;99.90;;;;;;4995610;28;20026;-91
2023/05/25 05:38:35;;;;;;;13.82;4.25;;;12.30;99.90;;;;;;4977562;28;20114;-91
2023/05/25 05:41:01;;;;;;;15.45;3.88;;;12.40;99.90;;;;;;4978279;28;20022;-91
2023/05/25 05:43:27;;;;;;;10.20;3.03;;;12.50;99.90;;;;;;4973965;28;20044;-91
2023/05/25 05:45:53;;;;;;;14.15;3.72;;;12.40;99.90;;;;;;4972408;28;20053;-91
2023/05/25 05:48:18;;;;;;;13.05;4.72;;;12.40;99.90;;;;;;4977204;28;20030;-92
2023/05/25 05:50:44;;;;;;;14.93;5.28;;;12.30;99.90;;;;;;4964008;28;20032;-92
2023/05/25 05:53:09;;;;;;;15.73;4.68;;;12.20;99.90;;;;;;4974044;28;20118;-91
2023/05/25 05:55:35;;;;;;;16.50;4.75;;;12.20;99.90;;;;;;4964602;28;20479;-91
2023/05/25 05:58:01;;;;;;;13.88;4.35;;;12.20;99.90;;;;;;4971496;28;20038;-92
2023/05/25 06:00:26;;;;;;;13.25;5.10;;;12.20;99.90;;;;;;4973085;28;20434;-95
2023/05/25 06:02:52;;;;;;;15.25;4.40;;;12.20;99.90;;;;;;4975535;28;20113;-95
2023/05/25 06:05:18;;;;;;;11.15;4.85;;;12.20;99.90;;;;;;4977994;28;20152;-96
2023/05/25 06:07:44;;;;;;;14.18;5.25;;;12.20;99.90;;;;;;4972622;28;20038;-94
2023/05/25 06:10:09;;;;;;;17.17;6.18;;;12.20;99.90;;;;;;4980280;28;20030;-95
2023/05/25 06:12:35;;;;;;;14.05;5.45;;;12.20;99.90;;;;;;4973947;28;20057;-95
2023/05/25 06:15:01;;;;;;;15.02;4.90;;;12.30;99.90;;;;;;4980923;28;20994;-95
2023/05/25 06:17:28;;;;;;;15.60;4.95;;;12.40;99.90;;;;;;4975434;28;20039;-96
2023/05/25 06:19:54;;;;;;;15.30;4.35;;;12.40;99.90;;;;;;4979561;28;20033;-95
2023/05/25 06:22:20;;;;;;;13.40;4.88;;;12.50;99.90;;;;;;4982408;28;20458;-94
2023/05/25 06:24:46;;;;;;;13.95;4.55;;;12.50;99.90;;;;;;4979828;28;20031;-95
2023/05/25 06:27:12;;;;;;;15.45;5.47;;;12.60;99.90;;;;;;4980720;28;20087;-94
2023/05/25 06:29:37;;;;;;;15.38;5.40;;;12.60;99.90;;;;;;4969675;28;20026;-93
2023/05/25 06:32:03;;;;;;;17.33;4.93;;;12.60;99.90;;;;;;4990154;28;20113;-92
2023/05/25 06:34:29;;;;;;;17.52;5.85;;;12.60;99.90;;;;;;4987962;28;20039;-90
2023/05/25 06:36:55;;;;;;;12.40;4.35;;;12.60;99.90;;;;;;4978389;28;20041;-89
2023/05/25 06:39:21;;;;;;;15.30;5.30;;;12.70;99.90;;;;;;4977957;28;20027;-89
2023/05/25 06:41:46;;;;;;;17.33;5.13;;;12.70;99.90;;;;;;4978208;28;20546;-90
2023/05/25 06:44:12;;;;;;;20.73;5.30;;;12.70;99.90;;;;;;4973202;28;20026;-90
2023/05/25 06:46:38;;;;;;;13.48;4.82;;;12.80;99.90;;;;;;4972826;28;20045;-91
2023/05/25 06:49:04;;;;;;;12.25;4.57;;;12.90;99.90;;;;;;4972674;28;20033;-91
2023/05/25 06:51:30;;;;;;;12.77;4.15;;;12.90;99.90;;;;;;4977734;28;20030;-89
2023/05/25 06:53:55;;;;;;;11.70;4.78;;;13.10;99.90;;;;;;4979558;28;20023;-90
2023/05/25 06:56:21;;;;;;;15.40;4.60;;;13.10;99.90;;;;;;4976717;28;20102;-89
2023/05/25 06:58:47;;;;;;;12.77;5.70;;;13.10;99.90;;;;;;4975093;28;20038;-89
2023/05/25 07:01:13;;;;;;;16.15;4.72;;;13.10;99.90;;;;;;4989148;28;20062;-89
2023/05/25 07:03:39;;;;;;;15.15;5.38;;;13.20;99.90;;;;;;4966286;28;20079;-90
2023/05/25 07:06:05;;;;;;;12.57;4.80;;;13.20;99.90;;;;;;4984588;28;20045;-90
2023/05/25 07:08:31;;;;;;;13.13;4.75;;;13.20;99.90;;;;;;4979999;28;20066;-90
2023/05/25 07:10:56;;;;;;;13.70;4.82;;;13.40;99.90;;;;;;4980188;28;20034;-91
2023/05/25 07:13:22;;;;;;;17.40;5.43;;;13.50;99.90;;;;;;4977240;28;20042;-91
2023/05/25 07:15:48;;;;;;;15.52;5.25;;;13.50;99.90;;;;;;4979938;28;20085;-92
2023/05/25 07:18:14;;;;;;;14.23;4.45;;;13.60;99.90;;;;;;4982002;28;20039;-92
2023/05/25 07:20:43;;;;;;;14.15;3.85;;;13.60;99.90;;;;;;4984256;28;20094;-91
2023/05/25 07:23:10;;;;;;;11.35;3.55;;;13.70;99.90;;;;;;4985676;28;20029;-91
2023/05/25 07:25:40;;;;;;;11.20;3.13;;;13.80;99.90;;;;;;4979321;28;20030;-92
2023/05/25 07:28:06;;;;;;;9.98;3.05;;;13.90;99.90;;;;;;4987392;28;20026;-92
2023/05/25 07:30:32;;;;;;;14.93;4.03;;;14.00;99.90;;;;;;4991354;28;20030;-92
2023/05/25 07:32:58;;;;;;;14.20;3.33;;;14.20;99.90;;;;;;4972831;28;20030;-91
2023/05/25 07:35:24;;;;;;;10.40;2.63;;;14.30;99.90;;;;;;4970625;28;20610;-92
2023/05/25 07:37:59;;;;;;;12.73;2.88;;;14.40;99.90;;;;;;4975562;28;20041;-92
2023/05/25 07:40:25;;;;;;;15.27;2.95;;;14.50;99.90;;;;;;4982226;28;20053;-91
2023/05/25 07:42:51;;;;;;;12.13;2.55;;;14.60;99.90;;;;;;4985719;28;20044;-91
2023/05/25 07:45:17;;;;;;;9.68;2.60;;;14.60;99.90;;;;;;4973637;28;20031;-91
2023/05/25 07:47:42;;;;;;;8.82;2.30;;;14.70;99.90;;;;;;4974356;28;20034;-91
2023/05/25 07:50:08;;;;;;;13.02;2.70;;;14.80;99.90;;;;;;4969782;28;20033;-92
2023/05/25 07:52:34;;;;;;;11.02;2.45;;;14.80;99.90;;;;;;4975288;28;20484;-92
2023/05/25 07:54:59;;;;;;;15.48;3.10;;;14.90;99.90;;;;;;4976520;28;20037;-92
2023/05/25 07:57:25;;;;;;;13.23;3.42;;;15.10;99.90;;;;;;4971411;28;20046;-91
2023/05/25 07:59:51;;;;;;;9.13;2.65;;;15.20;99.90;;;;;;4977724;28;20031;-90
2023/05/25 08:02:17;;;;;;;14.75;2.72;;;15.30;99.90;;;;;;4974509;28;20434;-92
2023/05/25 08:04:42;;;;;;;9.98;3.72;;;15.40;99.90;;;;;;4984415;28;20045;-90
2023/05/25 08:07:08;;;;;;;10.05;3.25;;;15.60;99.90;;;;;;4980247;28;20040;-91
2023/05/25 08:09:33;;;;;;;10.85;3.00;;;15.70;99.90;;;;;;4966090;28;20122;-91
2023/05/25 08:12:00;;;;;;;15.38;3.13;;;15.80;99.90;;;;;;4976318;28;20376;-92
2023/05/25 08:14:25;;;;;;;13.23;3.67;;;15.90;99.90;;;;;;4995435;28;20022;-91
2023/05/25 08:16:51;;;;;;;11.50;3.10;;;16.00;99.90;;;;;;4979345;28;20040;-91
2023/05/25 08:19:16;;;;;;;14.52;3.33;;;16.10;99.90;;;;;;4989181;28;20147;-92
2023/05/25 08:21:42;;;;;;;14.32;2.92;;;16.20;99.90;;;;;;4984416;28;20506;-92
2023/05/25 08:24:08;;;;;;;10.05;2.50;;;16.40;99.90;;;;;;4973450;28;20026;-92
2023/05/25 08:26:35;;;;;;;11.70;3.13;;;16.60;99.90;;;;;;4976819;28;20022;-90
2023/05/25 08:29:02;;;;;;;7.90;2.20;;;16.60;99.90;;;;;;4964983;28;20534;-91
2023/05/25 08:31:28;;;;;;;8.93;2.83;;;16.60;99.90;;;;;;4967345;28;20074;-91
2023/05/25 08:33:54;;;;;;;9.85;2.30;;;16.50;99.90;;;;;;4973062;28;20101;-91
2023/05/25 08:36:19;;;;;;;11.23;2.47;;;16.60;99.90;;;;;;4979123;28;20509;-92
2023/05/25 08:38:45;;;;;;;9.13;1.95;;;16.60;99.90;;;;;;4974524;28;20018;-90
2023/05/25 08:41:12;;;;;;;11.43;2.33;;;16.70;99.90;;;;;;4970612;28;20029;-92
2023/05/25 08:43:37;;;;;;;8.32;1.75;;;16.60;99.90;;;;;;4977899;28;20121;-91
2023/05/25 08:46:07;;;;;;;8.93;1.90;;;16.70;99.90;;;;;;4989941;28;20113;-92
2023/05/25 08:48:34;;;;;;;7.88;1.85;;;16.80;99.90;;;;;;4979355;28;20034;-90
2023/05/25 08:51:07;;;;;;;6.93;1.75;;;17.00;99.90;;;;;;4989410;28;20022;-91
2023/05/25 08:53:38;;;;;;;10.10;1.70;;;16.90;99.90;;;;;;4980005;28;20065;-91
2023/05/25 08:56:17;;;;;;;10.88;1.85;;;16.90;99.90;;;;;;4977727;28;20027;-90
2023/05/25 08:58:54;;;;;;;9.50;1.63;;;16.90;99.90;;;;;;4980355;28;20086;-91
2023/05/25 09:01:23;;;;;;;9.40;2.60;;;16.90;99.90;;;;;;4960603;28;20023;-91
2023/05/25 09:03:50;;;;;;;8.32;1.75;;;16.80;99.90;;;;;;4980274;28;20037;-90
2023/05/25 09:06:16;;;;;;;7.50;1.90;;;16.80;99.90;;;;;;4982978;28;20121;-90
2023/05/25 09:08:43;;;;;;;11.68;1.83;;;16.70;99.90;;;;;;4988221;28;20033;-91
2023/05/25 09:11:10;;;;;;;9.93;1.75;;;16.80;99.90;;;;;;4978326;28;20026;-91
2023/05/25 09:13:36;;;;;;;10.77;1.40;;;16.90;99.90;;;;;;4978741;28;20022;-91
2023/05/25 09:16:02;;;;;;;10.15;2.33;;;17.00;99.90;;;;;;4987852;28;20026;-91
2023/05/25 09:18:27;;;;;;;8.80;2.17;;;17.10;99.90;;;;;;4983462;28;20061;-90
2023/05/25 09:20:54;;;;;;;6.63;1.50;;;17.10;99.90;;;;;;4991965;28;20165;-90
2023/05/25 09:23:20;;;;;;;6.57;1.65;;;17.10;99.90;;;;;;4992086;28;20037;-91
2023/05/25 09:25:49;;;;;;;8.73;1.92;;;17.10;99.90;;;;;;4991749;28;20030;-90
2023/05/25 09:28:18;;;;;;;7.90;1.88;;;17.00;99.90;;;;;;4975144;28;20037;-92
2023/05/25 09:30:44;;;;;;;8.85;2.15;;;17.00;99.90;;;;;;4965648;28;20033;-91
2023/05/25 09:33:12;;;;;;;5.97;1.38;;;17.00;99.90;;;;;;4965341;28;20070;-90
2023/05/25 09:35:38;;;;;;;9.48;2.15;;;16.90;99.90;;;;;;4978753;28;20046;-89
2023/05/25 09:38:05;;;;;;;7.50;1.45;;;17.00;99.90;;;;;;4990168;28;20050;-90
2023/05/25 09:40:34;;;;;;;8.70;2.28;;;17.30;99.90;;;;;;4984651;28;20026;-89
2023/05/25 09:43:01;;;;;;;10.65;2.50;;;17.60;99.90;;;;;;4988562;28;20093;-90
2023/05/25 09:45:26;;;;;;;8.23;1.38;;;17.70;99.90;;;;;;4978755;28;20034;-89
2023/05/25 09:47:56;;;;;;;5.18;1.48;;;17.90;99.90;;;;;;4988391;28;20031;-89
2023/05/25 09:50:22;;;;;;;9.98;2.88;;;18.00;99.90;;;;;;4992502;28;20083;-90
2023/05/25 09:52:48;;;;;;;8.05;1.88;;;18.00;99.90;;;;;;4988656;28;20121;-89
2023/05/25 09:55:14;;;;;;;8.70;1.65;;;18.10;99.90;;;;;;4983604;28;20038;-91
2023/05/25 09:57:40;;;;;;;11.30;2.28;;;18.30;99.90;;;;;;4980190;28;20061;-91
2023/05/25 10:00:07;;;;;;;6.90;1.60;;;18.60;99.50;;;;;;4969154;28;20023;-91
2023/05/25 10:02:33;;;;;;;8.38;2.10;;;18.70;98.80;;;;;;4993543;28;20044;-91
2023/05/25 10:04:58;;;;;;;6.28;1.63;;;18.80;97.90;;;;;;4973299;28;20029;-91
2023/05/25 10:07:25;;;;;;;8.27;1.83;;;18.70;97.20;;;;;;4983043;28;20030;-90
2023/05/25 10:09:53;;;;;;;12.13;2.38;;;18.60;97.10;;;;;;4979922;28;20026;-90
2023/05/25 10:12:20;;;;;;;7.53;2.00;;;18.50;95.90;;;;;;4978691;28;20057;-89
2023/05/25 10:14:48;;;;;;;6.18;1.75;;;18.50;95.50;;;;;;4986485;28;20094;-91
2023/05/25 10:17:16;;;;;;;10.60;1.88;;;18.50;94.90;;;;;;4987057;28;20031;-90
2023/05/25 10:19:55;;;;;;;10.18;2.50;;;18.60;94.70;;;;;;4989889;28;20085;-89
2023/05/25 10:22:31;;;;;;;7.63;2.05;;;18.60;94.60;;;;;;4988974;28;20072;-89
2023/05/25 10:25:07;;;;;;;7.00;1.45;;;18.50;94.10;;;;;;4982708;28;20029;-90
2023/05/25 10:28:01;;;;;;;9.57;1.70;;;18.40;94.80;;;;;;4981686;28;20036;-91
2023/05/25 10:30:27;;;;;;;11.48;2.17;;;18.30;95.00;;;;;;4994502;28;20091;-90
2023/05/25 10:32:58;;;;;;;10.93;2.55;;;18.00;95.10;;;;;;4977238;28;20269;-90
2023/05/25 10:35:23;;;;;;;12.80;2.38;;;17.80;95.40;;;;;;4983528;28;20049;-90
2023/05/25 10:37:53;;;;;;;7.97;2.10;;;17.70;96.30;;;;;;4981706;28;20033;-90
2023/05/25 10:40:22;;;;;;;10.55;2.70;;;17.60;96.60;;;;;;5001152;28;20057;-91
2023/05/25 10:42:51;;;;;;;9.20;2.00;;;17.80;96.80;;;;;;4996962;28;20023;-91
2023/05/25 10:45:18;;;;;;;11.95;2.60;;;17.90;97.20;;;;;;4997815;28;20026;-91
2023/05/25 10:47:49;;;;;;;8.55;1.52;;;18.00;97.20;;;;;;4992478;28;20090;-90
2023/05/25 10:50:23;;;;;;;6.95;1.70;;;18.20;95.80;;;;;;4998770;28;20034;-91
2023/05/25 10:53:04;;;;;;;7.28;1.92;;;18.30;95.50;;;;;;4985462;28;20026;-90
2023/05/25 10:55:53;;;;;;;8.37;1.83;;;18.40;95.60;;;;;;4991626;28;20026;-90
2023/05/25 10:58:21;;;;;;;11.30;1.92;;;18.50;95.40;;;;;;4977381;28;20108;-90
2023/05/25 11:01:07;;;;;;;9.55;1.70;;;18.40;94.70;;;;;;4993080;28;20026;-90
2023/05/25 11:03:51;;;;;;;9.38;2.03;;;18.30;94.70;;;;;;4992068;28;20077;-90
2023/05/25 11:06:21;;;;;;;12.02;1.80;;;18.10;94.40;;;;;;4980883;28;20121;-90
2023/05/25 11:08:55;;;;;;;9.73;2.08;;;18.00;94.70;;;;;;4981563;28;20506;-91
2023/05/25 11:11:41;;;;;;;6.20;1.65;;;18.10;95.30;;;;;;4994342;28;20064;-91
2023/05/25 11:14:19;;;;;;;4.38;1.63;;;18.40;95.00;;;;;;4984992;28;20034;-91
2023/05/25 11:17:10;;;;;;;7.35;1.67;;;19.00;93.90;;;;;;4986405;28;20035;-91
2023/05/25 11:19:47;;;;;;;5.55;1.80;;;19.10;91.30;;;;;;4971142;28;20038;-91
2023/05/25 11:22:43;;;;;;;5.47;1.10;;;19.10;91.10;;;;;;4961763;28;20062;-91
2023/05/25 11:25:36;;;;;;;6.47;1.50;;;19.30;90.80;;;;;;4950084;28;20058;-91
2023/05/25 11:28:03;;;;;;;6.47;1.25;;;19.50;89.80;;;;;;4985374;28;20029;-90
2023/05/25 11:30:29;;;;;;;6.28;1.25;;;19.50;89.30;;;;;;4969682;28;20455;-91
2023/05/25 11:32:58;;;;;;;5.75;1.38;;;19.50;87.40;;;;;;4987263;28;20026;-90
2023/05/25 11:35:25;;;;;;;8.25;1.40;;;19.40;88.00;;;;;;4989430;28;20054;-91
2023/05/25 11:37:52;;;;;;;8.73;1.73;;;19.30;87.70;;;;;;4987831;28;20073;-91
2023/05/25 11:40:21;;;;;;;6.80;1.83;;;19.30;87.30;;;;;;4971427;28;20738;-92
2023/05/25 11:42:48;;;;;;;7.47;1.88;;;19.30;87.10;;;;;;4980155;28;20018;-90
2023/05/25 11:45:14;;;;;;;6.97;1.50;;;19.20;86.80;;;;;;4977371;28;20022;-91
2023/05/25 11:47:40;;;;;;;4.15;1.58;;;19.20;87.70;;;;;;4979146;28;20034;-89
2023/05/25 11:50:06;;;;;;;6.57;1.55;;;19.20;87.40;;;;;;4979014;28;20085;-89
2023/05/25 11:52:32;;;;;;;6.13;1.30;;;19.30;86.70;;;;;;4987415;28;20025;-88
2023/05/25 11:54:58;;;;;;;5.53;1.60;;;19.50;86.70;;;;;;4977099;28;20034;-88
2023/05/25 11:57:24;;;;;;;6.43;2.00;;;19.50;86.50;;;;;;4989229;28;20036;-87
2023/05/25 11:59:52;;;;;;;6.53;1.90;;;19.40;85.90;;;;;;4980586;28;20026;-88
2023/05/25 12:02:18;;;;;;;6.35;2.20;;;19.40;86.00;;;;;;4976787;28;20106;-89
2023/05/25 12:04:58;;;;;;;5.47;1.40;;;19.30;86.30;;;;;;4975353;28;20037;-88
2023/05/25 12:07:25;;;;;;;11.43;1.83;;;19.40;86.50;;;;;;4982125;28;20136;-89
2023/05/25 12:09:51;;;;;;;4.82;1.30;;;19.30;84.10;;;;;;4982071;28;20402;-89
2023/05/25 12:12:18;;;;;;;7.07;1.63;;;19.20;83.30;;;;;;4984056;28;20023;-88
2023/05/25 12:14:48;;;;;;;7.13;1.50;;;19.10;83.70;;;;;;4973488;28;20036;-90
2023/05/25 12:17:15;;;;;;;8.02;1.92;;;19.20;84.10;;;;;;4972370;28;20034;-88
2023/05/25 12:19:40;;;;;;;4.60;1.23;;;19.30;82.20;;;;;;4977310;28;20033;-88
2023/05/25 12:22:06;;;;;;;5.80;1.10;;;19.70;82.40;;;;;;4976504;28;20031;-88
2023/05/25 12:24:32;;;;;;;6.63;1.65;;;19.80;82.80;;;;;;4977767;28;20050;-88
2023/05/25 12:26:58;;;;;;;3.72;0.75;;;19.80;82.40;;;;;;4982209;28;20153;-89
2023/05/25 12:29:25;;;;;;;6.13;1.40;;;19.80;83.40;;;;;;4965145;28;20026;-87
2023/05/25 12:31:51;;;;;;;31.85;4.78;;;19.80;82.70;;;;;;4973274;28;20046;-94
2023/05/25 12:34:18;;;;;;;7.90;1.45;;;19.60;83.20;;;;;;4967259;28;20051;-88
2023/05/25 12:36:45;;;;;;;7.47;1.63;;;19.60;83.80;;;;;;4956023;28;20476;-89
2023/05/25 12:39:16;;;;;;;3.83;1.10;;;19.70;82.00;;;;;;4939604;28;20496;-88
2023/05/25 12:41:50;;;;;;;5.88;1.20;;;19.70;82.30;;;;;;4956006;28;20389;-88
2023/05/25 12:44:16;;;;;;;7.85;1.55;;;19.80;81.30;;;;;;4950927;28;20040;-89
2023/05/25 12:46:42;;;;;;;5.88;1.67;;;19.80;80.80;;;;;;4966626;28;20211;-89